New Mingzhou 16 — VRLS3 — position and weather

sailwx.info

Track history (hours):
 
Tides and Currents Weather Stations Pressure Air Temp Water Temp Dewpoint Dewpoint Depression Visibility Wind Speed Wind Dir Waves Ship Positions

New Mingzhou 16

Last reported at 2017-Sep-22 00:28 UTC. Time now 2017-Sep-22 00:43 UTC.
Position N 34°39' E 135°26'.

Length 143 m; draft 8 m.

Type: Ship (hazmat cat A). MMSI: 477224100.

Date/timePositionNaut miles runAvg speedWind from/ knotsBaromVisibWave heightAir tempDewpointWater temp
2017-Sep-22 00:28N 34°39' E 135°26'0 0.0
2017-Sep-21 23:58N 34°39' E 135°26'0 0.0
2017-Sep-21 23:28N 34°39' E 135°26'0 0.0
2017-Sep-21 22:52N 34°39' E 135°26'0 0.0
2017-Sep-21 22:28N 34°39' E 135°26'0 0.0
2017-Sep-21 21:58N 34°39' E 135°26'0 0.0
2017-Sep-21 21:28N 34°39' E 135°26'0 0.0
2017-Sep-21 20:58N 34°39' E 135°26'0 0.0
2017-Sep-21 20:28N 34°39' E 135°26'0 0.0
2017-Sep-21 19:52N 34°39' E 135°26'0 0.0
2017-Sep-21 19:28N 34°39' E 135°26'0 0.0
2017-Sep-21 18:58N 34°39' E 135°26'0 0.0
2017-Sep-21 18:28N 34°39' E 135°26'0 0.0
2017-Sep-21 17:58N 34°39' E 135°26'0 0.0
2017-Sep-21 17:28N 34°39' E 135°26'0 0.0
2017-Sep-21 16:58N 34°39' E 135°26'0 0.0
2017-Sep-21 16:28N 34°39' E 135°26'0 0.0
2017-Sep-21 15:58N 34°39' E 135°26'0 0.0
2017-Sep-21 15:28N 34°39' E 135°26'0 0.0
2017-Sep-21 14:58N 34°39' E 135°26'0 0.0
2017-Sep-21 14:28N 34°39' E 135°26'1 1.3
2017-Sep-21 14:00N 34°39' E 135°25'5 9.2
2017-Sep-21 13:30N 34°36' E 135°20'714.0
2017-Sep-21 13:00N 34°31' E 135°14'714.2
2017-Sep-21 12:30N 34°27' E 135°08'1416.2
2017-Sep-21 11:38N 34°14' E 134°59'216.3
2017-Sep-21 11:30N 34°13' E 134°58'816.1
2017-Sep-21 11:00N 34°04' E 134°57'63115.6
2017-Sep-19 18:31N 30°36' E 123°13'1316.9
2017-Sep-19 17:43N 30°35' E 122°57'416.6
2017-Sep-19 17:29N 30°35' E 122°53'5914.1
2017-Sep-19 13:20N 30°17' E 121°48'617.0
2017-Sep-19 12:59N 30°11' E 121°48'1112.9
2017-Sep-19 12:06N 29°60' E 121°49'213.0
2017-Sep-19 11:59N 29°58' E 121°50'3 0.7
2017-Sep-19 07:50N 29°56' E 121°52'0 0.0
2017-Sep-19 03:44N 29°56' E 121°52'0 0.0
2017-Sep-19 01:38N 29°56' E 121°52'0 0.0
2017-Sep-19 01:26N 29°56' E 121°52'0 0.0
2017-Sep-18 21:44N 29°56' E 121°52'0 0.0
2017-Sep-18 15:57N 29°56' E 121°52'0 0.0
2017-Sep-18 12:44N 29°56' E 121°52'0 0.0
2017-Sep-18 11:40N 29°56' E 121°52'0 0.4
2017-Sep-18 11:30N 29°56' E 121°52'15 7.9
2017-Sep-18 09:38N 30°11' E 121°50'0 0.1
2017-Sep-18 05:53N 30°11' E 121°50'1 0.0
2017-Sep-17 00:06N 30°12' E 121°50'0 0.0
2017-Sep-16 21:28N 30°12' E 121°50'5 9.8
2017-Sep-16 20:58N 30°16' E 121°48'  
Track history (hours):
 
Tides and Currents Weather Stations Pressure Air Temp Water Temp Dewpoint Dewpoint Depression Visibility Wind Speed Wind Dir Waves Ship Positions

New Mingzhou 16

Last reported at 2017-Sep-22 00:28 UTC. Time now 2017-Sep-22 00:43 UTC.
Position N 34°39' E 135°26'.

Length 143 m; draft 8 m.

Type: Ship (hazmat cat A). MMSI: 477224100.

Date/timePositionNaut miles runAvg speedWind from/ knotsBaromVisibWave heightAir tempDewpointWater temp
2017-Sep-22 00:28N 34°39' E 135°26'0 0.0
2017-Sep-21 23:58N 34°39' E 135°26'0 0.0
2017-Sep-21 23:28N 34°39' E 135°26'0 0.0
2017-Sep-21 22:52N 34°39' E 135°26'0 0.0
2017-Sep-21 22:28N 34°39' E 135°26'0 0.0
2017-Sep-21 21:58N 34°39' E 135°26'0 0.0
2017-Sep-21 21:28N 34°39' E 135°26'0 0.0
2017-Sep-21 20:58N 34°39' E 135°26'0 0.0
2017-Sep-21 20:28N 34°39' E 135°26'0 0.0
2017-Sep-21 19:52N 34°39' E 135°26'0 0.0
2017-Sep-21 19:28N 34°39' E 135°26'0 0.0
2017-Sep-21 18:58N 34°39' E 135°26'0 0.0
2017-Sep-21 18:28N 34°39' E 135°26'0 0.0
2017-Sep-21 17:58N 34°39' E 135°26'0 0.0
2017-Sep-21 17:28N 34°39' E 135°26'0 0.0
2017-Sep-21 16:58N 34°39' E 135°26'0 0.0
2017-Sep-21 16:28N 34°39' E 135°26'0 0.0
2017-Sep-21 15:58N 34°39' E 135°26'0 0.0
2017-Sep-21 15:28N 34°39' E 135°26'0 0.0
2017-Sep-21 14:58N 34°39' E 135°26'0 0.0
2017-Sep-21 14:28N 34°39' E 135°26'1 1.3
2017-Sep-21 14:00N 34°39' E 135°25'5 9.2
2017-Sep-21 13:30N 34°36' E 135°20'714.0
2017-Sep-21 13:00N 34°31' E 135°14'714.2
2017-Sep-21 12:30N 34°27' E 135°08'1416.2
2017-Sep-21 11:38N 34°14' E 134°59'216.3
2017-Sep-21 11:30N 34°13' E 134°58'816.1
2017-Sep-21 11:00N 34°04' E 134°57'63115.6
2017-Sep-19 18:31N 30°36' E 123°13'1316.9
2017-Sep-19 17:43N 30°35' E 122°57'416.6
2017-Sep-19 17:29N 30°35' E 122°53'5914.1
2017-Sep-19 13:20N 30°17' E 121°48'617.0
2017-Sep-19 12:59N 30°11' E 121°48'1112.9
2017-Sep-19 12:06N 29°60' E 121°49'213.0
2017-Sep-19 11:59N 29°58' E 121°50'3 0.7
2017-Sep-19 07:50N 29°56' E 121°52'0 0.0
2017-Sep-19 03:44N 29°56' E 121°52'0 0.0
2017-Sep-19 01:38N 29°56' E 121°52'0 0.0
2017-Sep-19 01:26N 29°56' E 121°52'0 0.0
2017-Sep-18 21:44N 29°56' E 121°52'0 0.0
2017-Sep-18 15:57N 29°56' E 121°52'0 0.0
2017-Sep-18 12:44N 29°56' E 121°52'0 0.0
2017-Sep-18 11:40N 29°56' E 121°52'0 0.4
2017-Sep-18 11:30N 29°56' E 121°52'15 7.9
2017-Sep-18 09:38N 30°11' E 121°50'0 0.1
2017-Sep-18 05:53N 30°11' E 121°50'1 0.0
2017-Sep-17 00:06N 30°12' E 121°50'0 0.0
2017-Sep-16 21:28N 30°12' E 121°50'5 9.8
2017-Sep-16 20:58N 30°16' E 121°48'  

Dump ship's entire track history